Time;durP1;ratioP1;P1;durP2;ratioP2;P2;SDS_P1;SDS_P2;PMS_P1;PMS_P2;Temp;Humidity;BMP_temperature;BMP_pressure;BME280_temperature;BME280_humidity;BME280_pressure;Samples;Min_cycle;Max_cycle;Signal;HPM_P1;HPM_P2
2021/12/04 00:02:26;;;;;;;94.18;43.05;;;;;;;-2.76;100.00;99963.69;6297397;28;20041;-72
2021/12/04 00:05:27;;;;;;;90.38;43.30;;;;;;;-2.80;100.00;99962.03;6297445;28;20051;-73
2021/12/04 00:08:28;;;;;;;98.72;45.42;;;;;;;-2.86;100.00;99958.69;6297264;28;20044;-73
2021/12/04 00:11:30;;;;;;;112.93;49.90;;;;;;;-2.87;100.00;99954.41;6296383;28;20397;-72
2021/12/04 00:14:32;;;;;;;114.28;48.97;;;;;;;-2.88;100.00;99947.63;6297191;28;20040;-73
2021/12/04 00:17:32;;;;;;;96.40;45.33;;;;;;;-2.98;100.00;99943.47;6297268;28;20049;-73
2021/12/04 00:20:34;;;;;;;103.03;47.35;;;;;;;-2.98;100.00;99953.66;6297246;28;20091;-72
2021/12/04 00:23:34;;;;;;;98.65;44.28;;;;;;;-2.94;100.00;99949.41;6297050;28;20044;-71
2021/12/04 00:26:36;;;;;;;91.55;41.67;;;;;;;-2.97;100.00;99947.69;6307003;28;20495;-71
2021/12/04 00:29:36;;;;;;;89.70;43.55;;;;;;;-3.03;100.00;99955.38;6320146;28;20048;-72
2021/12/04 00:32:41;;;;;;;92.53;41.70;;;;;;;-3.13;100.00;99941.00;6321674;28;20051;-72
2021/12/04 00:35:47;;;;;;;81.22;39.97;;;;;;;-3.17;100.00;99945.31;6320720;28;20052;-73
2021/12/04 00:52:05;;;;;;;62.92;30.40;;;;;;;-3.19;100.00;99939.34;6320333;28;20085;-73
2021/12/04 00:55:07;;;;;;;83.18;34.92;;;;;;;-3.21;100.00;99942.75;6321792;28;20052;-73
2021/12/04 00:58:08;;;;;;;77.15;37.45;;;;;;;-3.20;100.00;99941.91;6320600;28;20117;-73
2021/12/04 01:01:08;;;;;;;82.38;37.75;;;;;;;-3.27;100.00;99934.28;6323859;28;20056;-72
2021/12/04 01:04:15;;;;;;;78.82;36.40;;;;;;;-3.33;100.00;99934.34;6325758;28;20097;-72
2021/12/04 01:07:16;;;;;;;74.63;34.88;;;;;;;-3.37;100.00;99930.09;6326867;28;20079;-72
2021/12/04 01:10:17;;;;;;;71.47;34.47;;;;;;;-3.29;100.00;99935.16;6308915;28;20059;-71
2021/12/04 01:13:20;;;;;;;65.93;34.13;;;;;;;-3.35;100.00;99925.84;6308608;28;20408;-71
2021/12/04 01:16:21;;;;;;;79.20;33.90;;;;;;;-3.39;100.00;99931.81;6326767;28;20550;-72
2021/12/04 01:19:22;;;;;;;66.80;32.30;;;;;;;-3.36;100.00;99920.75;6314381;28;20056;-71
2021/12/04 01:22:25;;;;;;;75.80;35.05;;;;;;;-3.39;100.00;99908.84;6300060;28;20441;-71
2021/12/04 01:25:27;;;;;;;75.10;34.30;;;;;;;-3.45;100.00;99906.34;6300087;28;20071;-71
2021/12/04 01:28:28;;;;;;;65.32;30.23;;;;;;;-3.45;100.00;99912.28;6299317;28;20056;-71
2021/12/04 01:31:29;;;;;;;64.47;30.00;;;;;;;-3.47;100.00;99905.50;6300526;28;20074;-71
2021/12/04 01:34:29;;;;;;;79.85;33.17;;;;;;;-3.53;100.00;99897.88;6299804;28;20040;-74
2021/12/04 01:37:30;;;;;;;76.75;33.80;;;;;;;-3.46;100.00;99896.97;6299762;28;20041;-73
2021/12/04 01:40:31;;;;;;;71.25;34.17;;;;;;;-3.51;100.00;99904.66;6299609;28;20118;-71
2021/12/04 01:43:32;;;;;;;70.53;33.10;;;;;;;-3.56;100.00;99903.88;6300769;28;20049;-73
2021/12/04 01:46:34;;;;;;;75.18;33.72;;;;;;;-3.60;100.00;99898.78;6299471;28;20535;-71
2021/12/04 01:49:35;;;;;;;69.35;35.83;;;;;;;-3.61;100.00;99904.75;6299599;28;20522;-71
2021/12/04 01:52:36;;;;;;;71.40;34.70;;;;;;;-3.61;100.00;99897.94;6282902;28;20048;-71
2021/12/04 01:55:37;;;;;;;73.22;34.55;;;;;;;-3.60;100.00;99901.31;6299328;28;20484;-71
2021/12/04 01:58:41;;;;;;;74.35;36.55;;;;;;;-3.56;100.00;99895.34;6300552;28;20047;-72
2021/12/04 02:01:42;;;;;;;67.13;33.38;;;;;;;-3.65;100.00;99901.34;6300541;28;20049;-71
2021/12/04 02:04:43;;;;;;;80.05;34.78;;;;;;;-3.71;100.00;99899.69;6299257;28;20051;-73
2021/12/04 02:07:46;;;;;;;69.60;34.05;;;;;;;-3.81;100.00;99899.75;6300413;28;20054;-71
2021/12/04 02:10:49;;;;;;;70.00;32.22;;;;;;;-3.73;100.00;99895.44;6300365;28;20040;-72
2021/12/04 02:13:50;;;;;;;67.90;33.22;;;;;;;-3.71;100.00;99896.28;6282166;28;20052;-71
2021/12/04 02:16:51;;;;;;;70.15;32.30;;;;;;;-3.67;100.00;99880.94;6299013;28;20059;-73
2021/12/04 02:19:52;;;;;;;65.32;30.45;;;;;;;-3.81;100.00;99887.00;6300010;28;20052;-72
2021/12/04 02:22:53;;;;;;;66.32;32.55;;;;;;;-3.91;100.00;99886.19;6282383;28;20618;-73
2021/12/04 02:25:53;;;;;;;67.45;31.45;;;;;;;-3.87;100.00;99888.72;6299975;28;20131;-73
2021/12/04 02:28:56;;;;;;;65.10;29.58;;;;;;;-3.76;100.00;99887.81;6281899;28;20484;-72
2021/12/04 02:32:00;;;;;;;59.70;30.58;;;;;;;-3.77;100.00;99888.66;6300007;28;20052;-71
2021/12/04 02:35:01;;;;;;;57.22;27.77;;;;;;;-3.74;100.00;99884.41;6299766;28;20040;-73
2021/12/04 02:38:02;;;;;;;65.15;30.00;;;;;;;-3.75;100.00;99881.84;6299578;28;20102;-73
2021/12/04 02:41:03;;;;;;;57.97;28.08;;;;;;;-3.70;100.00;99880.16;6299647;28;20400;-71
2021/12/04 02:44:04;;;;;;;55.75;27.50;;;;;;;-3.79;100.00;99875.09;6281217;28;20064;-74
2021/12/04 02:47:06;;;;;;;56.92;27.52;;;;;;;-3.76;100.00;99887.81;6299382;28;20064;-73
2021/12/04 02:50:10;;;;;;;54.58;28.45;;;;;;;-3.87;100.00;99882.75;6299309;28;20044;-73
2021/12/04 02:53:11;;;;;;;55.15;27.80;;;;;;;-3.90;100.00;99877.69;6281823;28;20086;-73
2021/12/04 02:56:12;;;;;;;54.08;25.55;;;;;;;-3.82;100.00;99880.22;6298011;28;20039;-73
2021/12/04 02:59:13;;;;;;;56.95;28.08;;;;;;;-3.92;100.00;99874.31;6281049;28;20053;-72
2021/12/04 03:02:20;;;;;;;54.40;27.23;;;;;;;-3.95;100.00;99877.72;6298007;28;20174;-71
2021/12/04 03:05:26;;;;;;;53.47;27.10;;;;;;;-4.02;100.00;99876.03;6299094;28;20485;-71
2021/12/04 03:08:26;;;;;;;54.13;25.75;;;;;;;-3.97;100.00;99865.84;6298857;28;20052;-71
2021/12/04 03:11:27;;;;;;;53.58;27.75;;;;;;;-4.03;100.00;99860.78;6297690;28;20059;-72
2021/12/04 03:14:28;;;;;;;47.92;25.40;;;;;;;-4.05;100.00;99861.63;6298540;28;20172;-71
2021/12/04 03:17:29;;;;;;;46.60;22.70;;;;;;;-3.93;100.00;99872.59;6298553;28;20116;-72
2021/12/04 03:20:31;;;;;;;49.42;25.58;;;;;;;-4.01;100.00;99862.47;6280733;28;20044;-73
2021/12/04 03:23:40;;;;;;;50.13;26.77;;;;;;;-4.11;100.00;99851.44;6297993;28;20044;-73
2021/12/04 03:26:41;;;;;;;55.00;25.65;;;;;;;-4.11;100.00;99859.09;6298379;28;20056;-72
2021/12/04 03:29:48;;;;;;;57.03;27.00;;;;;;;-4.14;100.00;99851.47;6297269;28;20068;-71
2021/12/04 03:42:15;;;;;;;53.55;26.67;;;;;;;-4.19;100.00;99850.63;6321434;28;20040;-72
2021/12/04 03:45:17;;;;;;;50.55;26.33;;;;;;;-4.17;100.00;99848.09;6322483;28;20548;-72
2021/12/04 03:51:48;;;;;;;55.17;26.08;;;;;;;-4.11;100.00;99848.06;6275349;28;20492;-71
2021/12/04 03:54:49;;;;;;;75.43;32.50;;;;;;;-4.17;100.00;99838.75;6321146;28;20113;-71
2021/12/04 03:57:50;;;;;;;68.68;31.30;;;;;;;-4.20;100.00;99836.22;6322731;28;20051;-73
2021/12/04 04:00:51;;;;;;;55.03;28.13;;;;;;;-4.33;100.00;99843.03;6314435;28;20473;-70
2021/12/04 04:03:52;;;;;;;58.15;29.88;;;;;;;-4.25;100.00;99838.75;6296440;28;20052;-71
2021/12/04 04:06:53;;;;;;;55.88;26.67;;;;;;;-4.28;100.00;99831.16;6283102;28;20143;-73
2021/12/04 04:09:54;;;;;;;59.08;28.08;;;;;;;-4.27;100.00;99832.81;6296210;28;20123;-73
2021/12/04 04:12:54;;;;;;;61.05;28.05;;;;;;;-4.21;100.00;99828.56;6297229;28;20528;-73
2021/12/04 04:15:55;;;;;;;56.13;28.30;;;;;;;-4.20;100.00;99817.50;6296314;28;20056;-73
2021/12/04 04:18:56;;;;;;;51.63;26.73;;;;;;;-4.18;100.00;99816.66;6297280;28;20044;-71
2021/12/04 04:21:58;;;;;;;52.42;24.75;;;;;;;-4.24;100.00;99821.78;6297318;28;20052;-71
2021/12/04 04:24:58;;;;;;;54.47;27.27;;;;;;;-4.23;100.00;99813.28;6300877;28;20037;-71
2021/12/04 04:27:59;;;;;;;53.38;27.50;;;;;;;-4.26;100.00;99824.34;6295135;28;20793;-71
2021/12/04 04:31:00;;;;;;;52.65;24.48;;;;;;;-4.22;100.00;99817.53;6296325;28;20484;-71
2021/12/04 04:34:05;;;;;;;49.67;26.23;;;;;;;-4.20;100.00;99822.59;6295884;28;20040;-72
2021/12/04 04:37:23;;;;;;;50.10;26.77;;;;;;;-4.38;100.00;99811.66;6296145;28;20048;-72
2021/12/04 05:10:40;;;;;;;41.22;21.55;;;;;;;-4.50;100.00;99809.16;6296123;28;20484;-73
2021/12/04 05:13:33;;;;;;;46.45;22.92;;;;;;;-4.52;100.00;99798.97;6295747;28;20048;-71
2021/12/04 05:16:45;;;;;;;44.25;22.58;;;;;;;-4.50;100.00;99804.06;6295820;28;20036;-71
2021/12/04 05:19:53;;;;;;;48.10;20.73;;;;;;;-4.56;100.00;99811.72;6295808;28;20055;-73
2021/12/04 05:22:53;;;;;;;46.15;22.65;;;;;;;-4.61;100.00;99806.66;6295263;28;20037;-70
2021/12/04 05:25:54;;;;;;;45.38;21.30;;;;;;;-4.60;100.00;99815.97;6295994;28;20071;-73
2021/12/04 05:28:58;;;;;;;34.10;17.08;;;;;;;-4.51;100.00;99810.88;6320262;28;20056;-70
2021/12/04 05:32:00;;;;;;;37.92;18.98;;;;;;;-4.52;100.00;99796.41;6321561;28;20068;-71
2021/12/04 05:35:01;;;;;;;37.42;19.77;;;;;;;-4.47;100.00;99789.63;6321455;28;20043;-72
2021/12/04 05:38:02;;;;;;;46.42;21.52;;;;;;;-4.54;100.00;99792.19;6309997;28;20041;-72
2021/12/04 05:41:04;;;;;;;37.13;18.65;;;;;;;-4.57;100.00;99793.06;6320853;28;20051;-72
2021/12/04 05:44:08;;;;;;;35.35;18.83;;;;;;;-4.68;100.00;99800.72;6319927;28;20044;-73
2021/12/04 05:47:17;;;;;;;36.72;19.20;;;;;;;-4.64;100.00;99786.28;6324277;28;20040;-73
2021/12/04 05:53:59;;;;;;;36.88;19.42;;;;;;;-4.57;100.00;99790.50;6325905;28;20048;-73
2021/12/04 05:57:00;;;;;;;141.82;57.88;;;;;;;-4.57;100.00;99787.97;6311269;28;20463;-73
2021/12/04 06:00:03;;;;;;;84.95;35.88;;;;;;;-4.62;100.00;99792.22;6325683;28;20055;-71
2021/12/04 06:03:04;;;;;;;72.53;36.47;;;;;;;-4.53;100.00;99786.22;6325911;28;20071;-73
2021/12/04 06:06:05;;;;;;;52.80;27.05;;;;;;;-4.57;100.00;99789.66;6325950;28;20044;-73
2021/12/04 06:09:06;;;;;;;59.17;28.50;;;;;;;-4.54;100.00;99787.94;6324494;28;20127;-71
2021/12/04 06:12:08;;;;;;;49.53;24.08;;;;;;;-4.53;100.00;99792.19;6325674;28;20051;-73
2021/12/04 06:15:09;;;;;;;51.15;25.45;;;;;;;-4.49;100.00;99783.69;6324194;28;20047;-71
2021/12/04 06:18:10;;;;;;;52.20;22.45;;;;;;;-4.39;100.00;99791.28;6305346;28;20488;-70
2021/12/04 06:24:30;;;;;;;49.20;26.17;;;;;;;-4.27;100.00;99794.59;6300074;28;20047;-72
2021/12/04 06:27:31;;;;;;;49.30;26.02;;;;;;;-4.19;100.00;99793.75;6299809;28;20049;-71
2021/12/04 06:30:35;;;;;;;53.15;25.30;;;;;;;-4.14;100.00;99799.66;6282335;28;20136;-73
2021/12/04 06:33:38;;;;;;;53.88;25.92;;;;;;;-4.06;100.00;99793.69;6299446;28;20066;-71
2021/12/04 06:36:38;;;;;;;61.45;29.50;;;;;;;-3.98;100.00;99802.97;6299205;28;20063;-72
2021/12/04 06:39:39;;;;;;;60.45;29.48;;;;;;;-3.89;100.00;99805.44;6299643;28;20476;-71
2021/12/04 06:42:41;;;;;;;60.45;29.35;;;;;;;-3.82;100.00;99808.81;6299672;28;20044;-72
2021/12/04 06:45:44;;;;;;;58.75;27.50;;;;;;;-3.78;100.00;99797.75;6299733;28;20049;-73
2021/12/04 06:49:09;;;;;;;55.35;24.98;;;;;;;-3.72;100.00;99803.66;6299314;28;20056;-72
2021/12/04 06:52:20;;;;;;;36.25;19.52;;;;;;;-3.62;100.00;99814.63;6299454;28;20061;-73
2021/12/04 06:55:27;;;;;;;35.88;16.48;;;;;;;-3.50;100.00;99813.69;6299569;28;20128;-73
2021/12/04 06:58:29;;;;;;;36.00;16.45;;;;;;;-3.43;100.00;99807.69;6304561;28;20048;-71
2021/12/04 07:01:30;;;;;;;30.60;15.93;;;;;;;-3.41;100.00;99805.97;6303130;28;20067;-71
2021/12/04 07:04:40;;;;;;;34.22;16.45;;;;;;;-3.34;100.00;99799.94;6300801;28;20059;-72
2021/12/04 07:07:41;;;;;;;34.58;17.98;;;;;;;-3.27;100.00;99801.59;6323301;28;20476;-73
2021/12/04 07:10:42;;;;;;;34.65;18.08;;;;;;;-3.29;100.00;99798.22;6298457;28;20040;-72
2021/12/04 07:13:43;;;;;;;33.67;17.88;;;;;;;-3.25;100.00;99801.59;6306260;28;20135;-72
2021/12/04 07:16:45;;;;;;;27.15;15.65;;;;;;;-3.10;100.00;99805.72;6321944;28;20078;-71
2021/12/04 07:19:45;;;;;;;33.85;15.75;;;;;;;-2.97;100.00;99798.78;6322926;28;20127;-71
2021/12/04 07:22:46;;;;;;;30.15;15.43;;;;;;;-2.77;100.00;99801.97;6323131;28;20510;-71
2021/12/04 07:25:47;;;;;;;29.77;15.48;;;;;;;-2.69;100.00;99794.22;6323078;28;20048;-71
2021/12/04 07:28:48;;;;;;;37.22;15.80;;;;;;;-2.60;100.00;99790.72;6322603;28;20044;-71
2021/12/04 07:31:49;;;;;;;41.22;17.13;;;;;;;-2.52;100.00;99788.91;6313324;28;20048;-72
2021/12/04 07:34:49;;;;;;;35.28;16.10;;;;;;;-2.40;100.00;99777.72;6297556;28;20043;-71
2021/12/04 07:37:50;;;;;;;34.90;15.63;;;;;;;-2.24;100.00;99779.22;6307164;28;20416;-71
2021/12/04 07:40:51;;;;;;;26.70;14.82;;;;;;;-2.20;100.00;99780.88;6320888;28;20033;-71
2021/12/04 07:43:54;;;;;;;36.38;16.52;;;;;;;-2.05;100.00;99779.81;6322057;28;20059;-71
2021/12/04 07:46:55;;;;;;;34.55;16.88;;;;;;;-1.99;100.00;99777.16;6322363;28;20441;-72
2021/12/04 07:49:56;;;;;;;28.10;15.73;;;;;;;-1.90;100.00;99773.63;6307133;28;20454;-71
2021/12/04 07:52:58;;;;;;;28.10;13.23;;;;;;;-1.81;100.00;99768.38;6308416;28;20040;-71
2021/12/04 07:56:00;;;;;;;31.87;12.90;;;;;;;-1.56;100.00;99757.78;6310398;28;20040;-73
2021/12/04 07:59:02;;;;;;;29.77;13.93;;;;;;;-1.26;99.11;99767.47;6314426;28;20288;-71
2021/12/04 08:02:03;;;;;;;22.67;11.70;;;;;;;-1.07;99.33;99762.88;6296893;28;20045;-71
2021/12/04 08:05:05;;;;;;;21.50;12.23;;;;;;;-0.72;97.64;99763.06;6296937;28;20504;-71
2021/12/04 08:08:06;;;;;;;25.00;12.43;;;;;;;-0.52;97.77;99760.97;6295567;28;20127;-73
2021/12/04 08:11:07;;;;;;;26.70;12.20;;;;;;;-0.30;94.22;99761.38;6295457;28;20040;-72
2021/12/04 08:14:08;;;;;;;20.63;10.88;;;;;;;-0.15;93.33;99764.50;6304809;28;20089;-71
2021/12/04 08:17:09;;;;;;;18.92;9.52;;;;;;;-0.09;95.24;99760.06;6321844;28;20381;-71
2021/12/04 08:20:12;;;;;;;21.10;11.05;;;;;;;0.14;93.55;99756.13;6320372;28;20381;-71
2021/12/04 08:23:13;;;;;;;19.48;11.45;;;;;;;0.27;94.57;99757.56;6314846;28;20062;-71
2021/12/04 08:26:14;;;;;;;19.10;9.98;;;;;;;0.40;90.91;99758.94;6321718;28;20157;-71
2021/12/04 08:29:14;;;;;;;18.42;10.68;;;;;;;0.43;92.50;99755.44;6310427;28;20056;-71
2021/12/04 08:32:15;;;;;;;20.25;10.40;;;;;;;0.60;93.12;99752.47;6321607;28;20067;-71
2021/12/04 08:35:18;;;;;;;20.77;9.85;;;;;;;0.80;91.44;99750.25;6296027;28;20044;-71
2021/12/04 08:38:19;;;;;;;17.30;9.75;;;;;;;0.87;92.41;99750.09;6296211;28;20469;-72
2021/12/04 08:41:20;;;;;;;18.13;9.07;;;;;;;1.13;88.14;99749.38;6296249;28;20044;-72
2021/12/04 08:44:21;;;;;;;16.05;9.07;;;;;;;1.14;89.66;99753.66;6295152;28;20399;-71
2021/12/04 08:47:22;;;;;;;14.15;8.35;;;;;;;1.35;84.25;99734.22;6294871;28;20481;-72
2021/12/04 08:50:28;;;;;;;14.57;8.63;;;;;;;1.36;85.00;99731.59;6296300;28;20067;-72
2021/12/04 08:53:30;;;;;;;21.85;12.43;;;;;;;1.30;88.99;99728.38;6294919;28;20155;-73
2021/12/04 08:56:33;;;;;;;21.77;13.32;;;;;;;1.72;87.65;99725.44;6307092;28;20496;-73
2021/12/04 08:59:35;;;;;;;19.05;11.05;;;;;;;1.87;84.50;99717.25;6321053;28;20040;-73
2021/12/04 09:02:36;;;;;;;17.15;10.63;;;;;;;1.99;83.69;99704.00;6321048;28;20044;-73
2021/12/04 09:05:37;;;;;;;19.55;11.85;;;;;;;2.06;84.73;99707.25;6319940;28;20040;-72
2021/12/04 09:08:38;;;;;;;19.40;12.20;;;;;;;2.28;83.30;99709.13;6319791;28;20040;-73
2021/12/04 09:11:45;;;;;;;19.52;11.93;;;;;;;1.98;83.99;99707.47;6319805;28;20036;-72
2021/12/04 09:14:45;;;;;;;18.77;10.98;;;;;;;2.08;84.03;99692.59;6319777;28;20399;-71
2021/12/04 09:17:46;;;;;;;16.83;9.55;;;;;;;2.30;79.13;99697.03;6319638;28;20258;-72
2021/12/04 09:20:49;;;;;;;19.35;10.63;;;;;;;2.32;80.44;99693.50;6321649;28;20044;-71
2021/12/04 09:24:01;;;;;;;28.70;14.57;;;;;;;2.52;77.80;99692.03;6326013;28;20048;-73
2021/12/04 10:22:59;;;;;;;13.52;6.63;;;;;;;3.41;65.61;99622.63;6299399;28;20052;-70
2021/12/04 10:32:35;;;;;;;19.20;10.13;;;;;;;3.55;64.78;99616.09;6301351;28;20117;-72
2021/12/04 10:35:37;;;;;;;13.43;7.40;;;;;;;3.57;63.16;99607.41;6310188;28;20064;-71
2021/12/04 10:38:43;;;;;;;12.38;7.20;;;;;;;3.51;63.79;99620.53;6316001;28;20496;-71
2021/12/04 10:41:46;;;;;;;14.98;7.60;;;;;;;3.47;62.92;99608.66;6302164;28;20041;-72
2021/12/04 10:44:52;;;;;;;18.23;9.38;;;;;;;3.44;62.88;99606.22;6299615;28;20071;-72
2021/12/04 10:47:56;;;;;;;8.98;5.35;;;;;;;3.46;59.96;99603.56;6299294;28;20041;-71
2021/12/04 10:54:27;;;;;;;14.88;8.05;;;;;;;3.52;63.54;99586.13;6298552;28;20036;-70
2021/12/04 11:40:48;;;;;;;18.38;10.20;;;;;;;3.55;71.80;99530.97;6269723;28;20092;-70
2021/12/04 11:47:21;;;;;;;17.95;8.82;;;;;;;3.31;73.86;99512.16;6313416;28;20428;-69
2021/12/04 11:50:34;;;;;;;13.30;8.38;;;;;;;3.39;74.42;99510.94;6322458;28;20040;-69
2021/12/04 11:53:35;;;;;;;14.13;8.40;;;;;;;3.31;73.99;99509.59;6303557;28;20389;-71
2021/12/04 11:56:36;;;;;;;17.63;8.27;;;;;;;3.19;73.61;99498.88;6279447;28;20045;-70
2021/12/04 11:59:41;;;;;;;20.33;7.80;;;;;;;2.95;73.91;99495.50;6296800;28;20040;-72
2021/12/04 12:02:42;;;;;;;14.55;8.00;;;;;;;3.00;73.60;99495.31;6297544;28;20036;-72
2021/12/04 12:05:55;;;;;;;21.58;11.25;;;;;;;3.44;72.60;99485.00;6295707;28;20110;-71
2021/12/04 12:09:17;;;;;;;16.23;8.70;;;;;;;3.74;70.13;99475.13;6296891;28;20098;-72
2021/12/04 12:12:18;;;;;;;22.70;9.80;;;;;;;3.94;69.85;99486.34;6296806;28;20086;-72
2021/12/04 12:15:27;;;;;;;18.30;9.57;;;;;;;4.08;67.56;99483.16;6295741;28;20086;-70
2021/12/04 12:18:28;;;;;;;18.75;9.32;;;;;;;3.98;65.36;99467.25;6296523;28;20496;-72
2021/12/04 12:21:54;;;;;;;18.25;10.07;;;;;;;4.09;67.44;99462.44;6295336;28;20037;-71
2021/12/04 12:25:06;;;;;;;18.65;9.35;;;;;;;4.11;68.21;99452.06;6296443;28;20056;-71
2021/12/04 12:37:51;;;;;;;17.45;10.23;;;;;;;3.97;69.36;99422.50;6296482;28;20040;-72
2021/12/04 12:41:09;;;;;;;18.73;10.32;;;;;;;4.09;69.92;99433.22;6295090;28;20041;-72
2021/12/04 12:44:18;;;;;;;17.85;9.43;;;;;;;4.10;69.96;99429.72;6295021;28;20076;-72
2021/12/04 12:47:21;;;;;;;16.02;9.80;;;;;;;3.96;69.89;99428.59;6294915;28;20043;-72
2021/12/04 12:50:31;;;;;;;19.90;10.38;;;;;;;4.01;70.93;99438.72;6294700;28;20052;-71
2021/12/04 12:53:41;;;;;;;17.20;9.88;;;;;;;4.01;72.09;99430.97;6296052;28;20202;-72
2021/12/04 12:56:46;;;;;;;17.77;10.10;;;;;;;4.00;71.29;99437.03;6304664;28;20143;-72
2021/12/04 13:12:53;;;;;;;14.50;9.57;;;;;;;3.82;73.41;99420.63;6295811;28;20128;-70
2021/12/04 13:16:01;;;;;;;19.60;10.23;;;;;;;3.76;73.86;99424.28;6295874;28;20041;-72
2021/12/04 13:19:09;;;;;;;17.55;10.18;;;;;;;3.65;75.13;99429.09;6294594;28;20040;-72
2021/12/04 13:22:14;;;;;;;21.52;11.18;;;;;;;3.56;75.92;99432.03;6295809;28;20515;-71
2021/12/04 13:25:15;;;;;;;19.40;11.45;;;;;;;3.59;76.39;99437.09;6294491;28;20115;-71
2021/12/04 13:28:21;;;;;;;68.43;24.35;;;;;;;3.51;76.20;99436.56;6295739;28;20133;-73
2021/12/04 13:31:22;;;;;;;19.23;10.40;;;;;;;3.50;75.63;99438.31;6311863;28;20037;-72
2021/12/04 13:34:26;;;;;;;16.20;10.13;;;;;;;3.60;75.26;99436.16;6294576;28;20044;-72
2021/12/04 13:37:27;;;;;;;17.70;9.68;;;;;;;3.58;74.88;99433.66;6294387;28;20037;-72
2021/12/04 13:40:31;;;;;;;18.48;10.80;;;;;;;3.28;77.61;99430.63;6294335;28;20032;-71
2021/12/04 13:43:32;;;;;;;22.35;11.23;;;;;;;3.02;78.78;99422.19;6295547;28;20499;-72
2021/12/04 13:46:47;;;;;;;18.88;10.85;;;;;;;3.05;79.24;99428.97;6294465;28;20048;-72
2021/12/04 13:53:18;;;;;;;23.35;11.07;;;;;;;2.82;80.65;99427.28;6271979;28;20057;-71
2021/12/04 13:56:24;;;;;;;19.27;10.90;;;;;;;2.80;80.95;99444.53;6294253;28;20451;-72
2021/12/04 13:59:27;;;;;;;33.88;12.25;;;;;;;2.70;81.68;99431.19;6294164;28;20123;-71
2021/12/04 14:02:30;;;;;;;24.27;11.63;;;;;;;2.71;82.03;99429.44;6328087;28;20058;-71
2021/12/04 14:05:31;;;;;;;17.38;10.68;;;;;;;2.69;83.04;99436.41;6294240;28;20040;-71
2021/12/04 14:08:32;;;;;;;18.25;10.68;;;;;;;2.53;84.04;99429.28;6331522;28;20550;-72
2021/12/04 14:11:36;;;;;;;20.83;11.75;;;;;;;2.48;84.38;99427.75;6298677;28;20078;-70
2021/12/04 14:14:36;;;;;;;23.40;12.55;;;;;;;2.37;84.69;99430.75;6299526;28;20051;-70
2021/12/04 14:17:37;;;;;;;20.17;12.32;;;;;;;2.30;84.82;99432.69;6299485;28;20045;-70
2021/12/04 14:20:41;;;;;;;29.42;15.43;;;;;;;2.22;84.83;99432.13;6315182;28;20522;-70
2021/12/04 14:23:47;;;;;;;21.38;13.10;;;;;;;2.07;85.10;99428.38;6299328;28;20044;-71
2021/12/04 14:26:56;;;;;;;25.48;13.35;;;;;;;1.96;86.18;99436.50;6332317;28;20523;-70
2021/12/04 14:30:10;;;;;;;21.48;12.60;;;;;;;1.96;86.81;99431.34;6298069;28;20044;-71
2021/12/04 14:33:15;;;;;;;26.52;13.00;;;;;;;1.79;88.47;99428.50;6299199;28;20039;-72
2021/12/04 14:36:21;;;;;;;26.58;13.38;;;;;;;1.77;89.49;99432.88;6304151;28;20503;-70
2021/12/04 14:39:25;;;;;;;19.92;12.05;;;;;;;1.60;90.86;99430.88;6322672;28;20040;-70
2021/12/04 14:42:31;;;;;;;22.85;11.75;;;;;;;1.54;91.29;99426.78;6305766;28;20036;-71
2021/12/04 14:45:35;;;;;;;27.02;12.65;;;;;;;1.53;91.42;99432.00;6323996;28;20067;-70
2021/12/04 14:48:48;;;;;;;24.25;13.23;;;;;;;1.52;92.13;99433.72;6323719;28;20216;-70
2021/12/04 14:51:49;;;;;;;20.73;12.27;;;;;;;1.48;92.05;99421.84;6323617;28;20036;-71
2021/12/04 14:54:51;;;;;;;24.90;12.50;;;;;;;1.43;92.57;99417.78;6323440;28;20066;-70
2021/12/04 14:57:52;;;;;;;31.03;15.67;;;;;;;1.35;93.63;99407.75;6322416;28;20063;-71
2021/12/04 15:01:03;;;;;;;27.23;14.35;;;;;;;1.27;94.42;99394.31;6323365;28;20123;-73
2021/12/04 15:04:04;;;;;;;19.67;12.27;;;;;;;1.22;95.81;99383.34;6323352;28;20415;-72
2021/12/04 15:07:05;;;;;;;28.20;17.15;;;;;;;1.19;95.25;99381.72;6323210;28;20127;-73
2021/12/04 15:10:24;;;;;;;29.40;17.23;;;;;;;1.18;95.17;99382.63;6322070;28;20050;-72
2021/12/04 15:13:29;;;;;;;32.55;16.20;;;;;;;1.19;95.58;99394.56;6323006;28;20472;-72
2021/12/04 15:19:46;;;;;;;35.20;18.25;;;;;;;1.14;97.14;99393.88;6322032;28;20037;-72
2021/12/04 15:22:54;;;;;;;30.70;18.33;;;;;;;1.14;96.91;99402.44;6322941;28;20044;-71
2021/12/04 15:25:58;;;;;;;44.13;22.52;;;;;;;1.10;97.20;99393.13;6305871;28;20044;-71
2021/12/04 15:28:59;;;;;;;48.72;27.08;;;;;;;1.00;97.23;99391.75;6321495;28;20060;-71
2021/12/04 15:32:12;;;;;;;35.47;19.52;;;;;;;0.96;97.26;99388.44;6321379;28;20067;-72
2021/12/04 15:35:17;;;;;;;33.20;19.92;;;;;;;0.97;97.88;99390.13;6322551;28;20467;-71
2021/12/04 15:38:35;;;;;;;59.33;35.17;;;;;;;0.89;98.16;99386.13;6322359;28;20044;-70
2021/12/04 15:41:58;;;;;;;61.13;37.05;;;;;;;0.79;98.83;99391.56;6321441;28;20040;-70
2021/12/04 15:55:05;;;;;;;32.92;19.00;;;;;;;0.53;98.54;99373.53;6322058;28;20037;-71
2021/12/04 15:58:15;;;;;;;45.90;23.33;;;;;;;0.54;98.68;99388.91;6322026;28;20075;-71
2021/12/04 16:01:17;;;;;;;62.20;29.15;;;;;;;0.59;99.24;99381.88;6321059;28;20039;-72
2021/12/04 16:04:24;;;;;;;128.80;53.15;;;;;;;0.63;98.83;99385.22;6303899;28;20040;-72
2021/12/04 16:07:29;;;;;;;132.70;59.70;;;;;;;0.57;98.00;99385.41;6321737;28;20040;-72
2021/12/04 16:10:30;;;;;;;112.22;48.65;;;;;;;0.62;97.15;99387.81;6320499;28;20044;-73
2021/12/04 16:13:35;;;;;;;157.88;70.10;;;;;;;0.63;97.00;99398.06;6321239;28;20048;-72
2021/12/04 16:16:42;;;;;;;240.70;98.15;;;;;;;0.58;97.96;99392.22;6321675;28;20044;-72
2021/12/04 16:19:49;;;;;;;126.40;53.97;;;;;;;0.57;97.99;99393.09;6321400;28;20048;-72
2021/12/04 16:22:52;;;;;;;91.15;40.80;;;;;;;0.56;96.66;99391.44;6321597;28;20090;-72
2021/12/04 16:25:53;;;;;;;75.82;36.53;;;;;;;0.60;96.68;99387.88;6321472;28;20090;-72
2021/12/04 16:29:12;;;;;;;60.95;32.28;;;;;;;0.53;95.60;99388.94;6321255;28;20560;-72
2021/12/04 16:35:44;;;;;;;81.60;35.05;;;;;;;0.54;96.31;99395.78;6305048;28;20063;-72
2021/12/04 16:38:47;;;;;;;98.97;43.20;;;;;;;0.55;95.77;99400.00;6320069;28;20040;-73
2021/12/04 16:41:53;;;;;;;;;;;;;;;0.41;96.97;99397.84;6320650;28;20082;-71
2021/12/04 16:44:54;;;;;;;63.75;26.85;;;;;;;0.14;100.00;99390.06;6320084;28;19924;-71
2021/12/04 16:47:55;;;;;;;105.65;40.63;;;;;;;0.07;100.00;99390.31;6320038;28;20047;-72
2021/12/04 17:00:25;;;;;;;87.88;40.90;;;;;;;0.04;100.00;99392.97;6320830;28;20463;-71
2021/12/04 17:03:27;;;;;;;86.43;40.22;;;;;;;0.08;100.00;99387.69;6319705;28;20036;-72
2021/12/04 17:06:27;;;;;;;87.53;39.35;;;;;;;0.07;100.00;99390.31;6303002;28;20040;-70
2021/12/04 17:09:29;;;;;;;88.40;41.75;;;;;;;0.11;100.00;99394.47;6320858;28;20046;-71
2021/12/04 17:12:33;;;;;;;144.45;58.55;;;;;;;0.07;100.00;99387.75;6319711;28;20040;-71
2021/12/04 17:15:35;;;;;;;99.70;45.00;;;;;;;0.08;100.00;99392.81;6319778;28;20043;-70
2021/12/04 17:18:40;;;;;;;159.73;63.42;;;;;;;0.04;100.00;99392.97;6320696;28;20043;-71
2021/12/04 17:21:44;;;;;;;105.50;49.10;;;;;;;0.01;100.00;99400.75;6319642;28;20044;-71
2021/12/04 17:24:45;;;;;;;92.40;45.00;;;;;;;0.03;100.00;99397.25;6320660;28;20040;-72
2021/12/04 17:27:47;;;;;;;82.70;41.05;;;;;;;0.06;100.00;99391.19;6319208;28;20109;-71
2021/12/04 17:30:49;;;;;;;75.60;37.10;;;;;;;0.06;100.00;99404.00;6302675;28;20040;-71
2021/12/04 17:33:54;;;;;;;63.95;34.58;;;;;;;0.08;100.00;99399.69;6320535;28;20044;-72
2021/12/04 17:36:55;;;;;;;54.38;30.27;;;;;;;0.09;100.00;99398.81;6320553;28;20455;-72
2021/12/04 17:39:57;;;;;;;58.10;30.73;;;;;;;0.12;100.00;99409.81;6301731;28;20048;-71
2021/12/04 17:42:58;;;;;;;50.88;30.80;;;;;;;0.16;100.00;99413.13;6323105;28;20051;-71
2021/12/04 17:45:59;;;;;;;54.90;30.55;;;;;;;0.17;100.00;99407.97;6325534;28;20056;-71
2021/12/04 17:49:01;;;;;;;63.20;31.25;;;;;;;0.17;100.00;99402.00;6307487;28;20044;-71
2021/12/04 17:52:02;;;;;;;59.63;30.90;;;;;;;0.16;100.00;99403.69;6325097;28;20051;-71